sensor_id;sensor_type;location;lat;lon;timestamp;P1;durP1;ratioP1;P2;durP2;ratioP2
62880;SDS011;48969;49.934;8.596;2023-03-23T00:01:57;1.95;;;1.40;;
62880;SDS011;48969;49.934;8.596;2023-03-23T00:04:22;2.63;;;1.80;;
62880;SDS011;48969;49.934;8.596;2023-03-23T00:06:49;2.45;;;1.40;;
62880;SDS011;48969;49.934;8.596;2023-03-23T00:09:15;2.55;;;1.50;;
62880;SDS011;48969;49.934;8.596;2023-03-23T00:11:41;3.78;;;1.60;;
62880;SDS011;48969;49.934;8.596;2023-03-23T00:14:06;2.75;;;1.42;;
62880;SDS011;48969;49.934;8.596;2023-03-23T00:16:37;1.77;;;1.30;;
62880;SDS011;48969;49.934;8.596;2023-03-23T00:19:05;2.40;;;1.40;;
62880;SDS011;48969;49.934;8.596;2023-03-23T00:21:32;1.73;;;1.25;;
62880;SDS011;48969;49.934;8.596;2023-03-23T00:24:14;4.35;;;1.38;;
62880;SDS011;48969;49.934;8.596;2023-03-23T00:26:41;2.45;;;1.50;;
62880;SDS011;48969;49.934;8.596;2023-03-23T00:29:07;2.40;;;1.60;;
62880;SDS011;48969;49.934;8.596;2023-03-23T00:31:34;3.20;;;1.60;;
62880;SDS011;48969;49.934;8.596;2023-03-23T00:34:00;2.80;;;1.80;;
62880;SDS011;48969;49.934;8.596;2023-03-23T00:36:26;3.53;;;1.67;;
62880;SDS011;48969;49.934;8.596;2023-03-23T00:38:51;2.97;;;1.65;;
62880;SDS011;48969;49.934;8.596;2023-03-23T00:41:17;2.72;;;1.92;;
62880;SDS011;48969;49.934;8.596;2023-03-23T00:43:42;2.50;;;1.73;;
62880;SDS011;48969;49.934;8.596;2023-03-23T00:46:09;3.88;;;1.95;;
62880;SDS011;48969;49.934;8.596;2023-03-23T00:48:35;2.60;;;1.63;;
62880;SDS011;48969;49.934;8.596;2023-03-23T00:51:00;3.13;;;1.80;;
62880;SDS011;48969;49.934;8.596;2023-03-23T00:53:26;3.15;;;1.80;;
62880;SDS011;48969;49.934;8.596;2023-03-23T00:55:51;3.47;;;1.90;;
62880;SDS011;48969;49.934;8.596;2023-03-23T00:58:16;3.70;;;2.07;;
62880;SDS011;48969;49.934;8.596;2023-03-23T01:00:41;4.78;;;1.88;;
62880;SDS011;48969;49.934;8.596;2023-03-23T01:03:07;3.85;;;2.13;;
62880;SDS011;48969;49.934;8.596;2023-03-23T01:05:34;2.38;;;1.70;;
62880;SDS011;48969;49.934;8.596;2023-03-23T01:07:59;4.15;;;2.10;;
62880;SDS011;48969;49.934;8.596;2023-03-23T01:10:25;1.77;;;1.67;;
62880;SDS011;48969;49.934;8.596;2023-03-23T01:12:51;2.85;;;1.75;;
62880;SDS011;48969;49.934;8.596;2023-03-23T01:15:17;2.15;;;1.92;;
62880;SDS011;48969;49.934;8.596;2023-03-23T01:17:43;2.67;;;1.67;;
62880;SDS011;48969;49.934;8.596;2023-03-23T01:20:08;2.42;;;1.70;;
62880;SDS011;48969;49.934;8.596;2023-03-23T01:22:34;2.80;;;1.60;;
62880;SDS011;48969;49.934;8.596;2023-03-23T01:25:00;2.25;;;1.58;;
62880;SDS011;48969;49.934;8.596;2023-03-23T01:27:25;3.13;;;1.95;;
62880;SDS011;48969;49.934;8.596;2023-03-23T01:29:50;3.37;;;1.97;;
62880;SDS011;48969;49.934;8.596;2023-03-23T01:32:16;3.60;;;1.83;;
62880;SDS011;48969;49.934;8.596;2023-03-23T01:34:41;2.72;;;1.60;;
62880;SDS011;48969;49.934;8.596;2023-03-23T01:37:06;2.80;;;1.70;;
62880;SDS011;48969;49.934;8.596;2023-03-23T01:39:32;2.65;;;1.70;;
62880;SDS011;48969;49.934;8.596;2023-03-23T01:41:57;3.45;;;1.92;;
62880;SDS011;48969;49.934;8.596;2023-03-23T01:46:48;2.95;;;2.03;;
62880;SDS011;48969;49.934;8.596;2023-03-23T01:49:15;2.97;;;2.00;;
62880;SDS011;48969;49.934;8.596;2023-03-23T01:51:43;2.72;;;1.92;;
62880;SDS011;48969;49.934;8.596;2023-03-23T01:54:11;2.85;;;2.05;;
62880;SDS011;48969;49.934;8.596;2023-03-23T01:56:43;2.65;;;1.88;;
62880;SDS011;48969;49.934;8.596;2023-03-23T01:59:10;4.47;;;2.25;;
62880;SDS011;48969;49.934;8.596;2023-03-23T02:01:35;4.65;;;2.10;;
62880;SDS011;48969;49.934;8.596;2023-03-23T02:04:03;4.00;;;1.92;;
62880;SDS011;48969;49.934;8.596;2023-03-23T02:06:29;2.72;;;2.08;;
62880;SDS011;48969;49.934;8.596;2023-03-23T02:08:54;3.45;;;2.30;;
62880;SDS011;48969;49.934;8.596;2023-03-23T02:11:21;3.42;;;2.08;;
62880;SDS011;48969;49.934;8.596;2023-03-23T02:13:47;4.30;;;2.25;;
62880;SDS011;48969;49.934;8.596;2023-03-23T02:21:16;2.50;;;1.90;;
62880;SDS011;48969;49.934;8.596;2023-03-23T02:26:46;3.35;;;2.13;;
62880;SDS011;48969;49.934;8.596;2023-03-23T02:42:10;2.70;;;1.83;;
62880;SDS011;48969;49.934;8.596;2023-03-23T02:44:39;3.47;;;1.65;;
62880;SDS011;48969;49.934;8.596;2023-03-23T02:47:06;3.70;;;1.70;;
62880;SDS011;48969;49.934;8.596;2023-03-23T02:49:33;2.20;;;1.70;;
62880;SDS011;48969;49.934;8.596;2023-03-23T02:52:01;2.25;;;1.75;;
62880;SDS011;48969;49.934;8.596;2023-03-23T02:54:26;2.75;;;1.58;;
62880;SDS011;48969;49.934;8.596;2023-03-23T02:56:52;1.80;;;1.65;;
62880;SDS011;48969;49.934;8.596;2023-03-23T02:59:19;3.00;;;2.05;;
62880;SDS011;48969;49.934;8.596;2023-03-23T03:01:46;2.08;;;1.75;;
62880;SDS011;48969;49.934;8.596;2023-03-23T03:04:14;3.58;;;2.00;;
62880;SDS011;48969;49.934;8.596;2023-03-23T03:12:12;3.55;;;2.25;;
62880;SDS011;48969;49.934;8.596;2023-03-23T03:14:39;2.25;;;2.05;;
62880;SDS011;48969;49.934;8.596;2023-03-23T03:17:08;3.45;;;2.17;;
62880;SDS011;48969;49.934;8.596;2023-03-23T03:19:37;4.13;;;2.00;;
62880;SDS011;48969;49.934;8.596;2023-03-23T03:22:03;3.47;;;2.15;;
62880;SDS011;48969;49.934;8.596;2023-03-23T03:24:29;4.25;;;2.38;;
62880;SDS011;48969;49.934;8.596;2023-03-23T03:26:56;3.25;;;2.15;;
62880;SDS011;48969;49.934;8.596;2023-03-23T03:29:25;2.65;;;1.75;;
62880;SDS011;48969;49.934;8.596;2023-03-23T03:31:51;2.25;;;2.00;;
62880;SDS011;48969;49.934;8.596;2023-03-23T03:34:20;2.92;;;1.80;;
62880;SDS011;48969;49.934;8.596;2023-03-23T03:36:45;2.20;;;2.00;;
62880;SDS011;48969;49.934;8.596;2023-03-23T03:39:11;2.80;;;1.90;;
62880;SDS011;48969;49.934;8.596;2023-03-23T03:41:37;4.15;;;2.10;;
62880;SDS011;48969;49.934;8.596;2023-03-23T03:44:03;3.03;;;2.15;;
62880;SDS011;48969;49.934;8.596;2023-03-23T03:46:28;4.05;;;2.17;;
62880;SDS011;48969;49.934;8.596;2023-03-23T03:48:56;2.25;;;1.95;;
62880;SDS011;48969;49.934;8.596;2023-03-23T03:51:24;2.92;;;2.00;;
62880;SDS011;48969;49.934;8.596;2023-03-23T03:53:50;2.92;;;1.90;;
62880;SDS011;48969;49.934;8.596;2023-03-23T03:56:15;3.25;;;2.22;;
62880;SDS011;48969;49.934;8.596;2023-03-23T03:58:40;3.00;;;2.10;;
62880;SDS011;48969;49.934;8.596;2023-03-23T04:01:07;2.75;;;2.05;;
62880;SDS011;48969;49.934;8.596;2023-03-23T04:03:33;3.08;;;1.92;;
62880;SDS011;48969;49.934;8.596;2023-03-23T04:05:58;3.33;;;2.20;;
62880;SDS011;48969;49.934;8.596;2023-03-23T04:08:24;2.95;;;2.03;;
62880;SDS011;48969;49.934;8.596;2023-03-23T04:10:51;3.60;;;1.90;;
62880;SDS011;48969;49.934;8.596;2023-03-23T04:13:17;2.83;;;2.00;;
62880;SDS011;48969;49.934;8.596;2023-03-23T04:15:43;3.00;;;1.98;;
62880;SDS011;48969;49.934;8.596;2023-03-23T04:18:08;3.05;;;2.20;;
62880;SDS011;48969;49.934;8.596;2023-03-23T04:20:34;4.37;;;2.10;;
62880;SDS011;48969;49.934;8.596;2023-03-23T04:22:59;2.10;;;1.90;;
62880;SDS011;48969;49.934;8.596;2023-03-23T04:25:25;3.70;;;2.33;;
62880;SDS011;48969;49.934;8.596;2023-03-23T04:27:50;4.10;;;2.10;;
62880;SDS011;48969;49.934;8.596;2023-03-23T04:30:18;2.80;;;2.13;;
62880;SDS011;48969;49.934;8.596;2023-03-23T04:32:44;4.10;;;2.30;;
62880;SDS011;48969;49.934;8.596;2023-03-23T04:35:10;3.70;;;2.45;;
62880;SDS011;48969;49.934;8.596;2023-03-23T04:37:36;2.45;;;1.95;;
62880;SDS011;48969;49.934;8.596;2023-03-23T04:40:02;4.65;;;2.08;;
62880;SDS011;48969;49.934;8.596;2023-03-23T04:42:36;3.67;;;2.33;;
62880;SDS011;48969;49.934;8.596;2023-03-23T04:45:02;3.85;;;2.20;;
62880;SDS011;48969;49.934;8.596;2023-03-23T04:47:31;2.97;;;1.92;;
62880;SDS011;48969;49.934;8.596;2023-03-23T04:49:56;2.47;;;1.90;;
62880;SDS011;48969;49.934;8.596;2023-03-23T04:52:22;2.38;;;1.70;;
62880;SDS011;48969;49.934;8.596;2023-03-23T04:54:49;2.83;;;1.65;;
62880;SDS011;48969;49.934;8.596;2023-03-23T04:57:15;2.67;;;1.67;;
62880;SDS011;48969;49.934;8.596;2023-03-23T04:59:40;4.03;;;1.77;;
62880;SDS011;48969;49.934;8.596;2023-03-23T05:02:05;3.10;;;2.20;;
62880;SDS011;48969;49.934;8.596;2023-03-23T05:04:31;2.92;;;1.95;;
62880;SDS011;48969;49.934;8.596;2023-03-23T05:06:58;3.15;;;2.00;;
62880;SDS011;48969;49.934;8.596;2023-03-23T05:09:23;2.35;;;1.95;;
62880;SDS011;48969;49.934;8.596;2023-03-23T05:11:48;2.35;;;2.00;;
62880;SDS011;48969;49.934;8.596;2023-03-23T05:14:13;1.80;;;1.63;;
62880;SDS011;48969;49.934;8.596;2023-03-23T05:16:39;2.58;;;1.80;;
62880;SDS011;48969;49.934;8.596;2023-03-23T05:19:05;3.15;;;1.98;;
62880;SDS011;48969;49.934;8.596;2023-03-23T05:21:30;3.35;;;2.00;;
62880;SDS011;48969;49.934;8.596;2023-03-23T05:23:55;2.85;;;1.80;;
62880;SDS011;48969;49.934;8.596;2023-03-23T05:26:21;2.22;;;1.65;;
62880;SDS011;48969;49.934;8.596;2023-03-23T05:28:46;2.83;;;1.73;;
62880;SDS011;48969;49.934;8.596;2023-03-23T05:31:13;4.22;;;1.90;;
62880;SDS011;48969;49.934;8.596;2023-03-23T05:33:38;2.22;;;1.55;;
62880;SDS011;48969;49.934;8.596;2023-03-23T05:36:03;3.20;;;1.80;;
62880;SDS011;48969;49.934;8.596;2023-03-23T05:38:30;3.10;;;1.73;;
62880;SDS011;48969;49.934;8.596;2023-03-23T05:40:57;1.85;;;1.52;;
62880;SDS011;48969;49.934;8.596;2023-03-23T05:43:25;4.82;;;1.80;;
62880;SDS011;48969;49.934;8.596;2023-03-23T05:45:50;2.85;;;1.77;;
62880;SDS011;48969;49.934;8.596;2023-03-23T05:48:15;2.50;;;1.73;;
62880;SDS011;48969;49.934;8.596;2023-03-23T05:50:41;2.42;;;1.70;;
62880;SDS011;48969;49.934;8.596;2023-03-23T05:53:06;3.33;;;1.80;;
62880;SDS011;48969;49.934;8.596;2023-03-23T05:55:31;2.28;;;1.90;;
62880;SDS011;48969;49.934;8.596;2023-03-23T05:57:56;3.90;;;2.00;;
62880;SDS011;48969;49.934;8.596;2023-03-23T06:00:22;2.67;;;2.00;;
62880;SDS011;48969;49.934;8.596;2023-03-23T06:02:48;3.65;;;2.20;;
62880;SDS011;48969;49.934;8.596;2023-03-23T06:05:14;4.38;;;2.10;;
62880;SDS011;48969;49.934;8.596;2023-03-23T06:07:40;2.33;;;1.90;;
62880;SDS011;48969;49.934;8.596;2023-03-23T06:10:06;3.05;;;1.90;;
62880;SDS011;48969;49.934;8.596;2023-03-23T06:12:32;2.78;;;1.90;;
62880;SDS011;48969;49.934;8.596;2023-03-23T06:14:57;2.20;;;2.00;;
62880;SDS011;48969;49.934;8.596;2023-03-23T06:17:22;2.17;;;1.80;;
62880;SDS011;48969;49.934;8.596;2023-03-23T06:19:48;2.43;;;2.20;;
62880;SDS011;48969;49.934;8.596;2023-03-23T06:22:15;2.22;;;1.90;;
62880;SDS011;48969;49.934;8.596;2023-03-23T06:24:41;4.13;;;2.00;;
62880;SDS011;48969;49.934;8.596;2023-03-23T06:27:06;3.10;;;1.93;;
62880;SDS011;48969;49.934;8.596;2023-03-23T06:29:33;2.72;;;2.03;;
62880;SDS011;48969;49.934;8.596;2023-03-23T06:31:59;4.13;;;2.30;;
62880;SDS011;48969;49.934;8.596;2023-03-23T06:34:25;2.58;;;1.92;;
62880;SDS011;48969;49.934;8.596;2023-03-23T06:36:51;2.17;;;1.83;;
62880;SDS011;48969;49.934;8.596;2023-03-23T06:39:17;2.83;;;1.88;;
62880;SDS011;48969;49.934;8.596;2023-03-23T06:41:42;3.65;;;1.80;;
62880;SDS011;48969;49.934;8.596;2023-03-23T06:44:08;2.25;;;1.80;;
62880;SDS011;48969;49.934;8.596;2023-03-23T06:46:33;2.72;;;1.73;;
62880;SDS011;48969;49.934;8.596;2023-03-23T06:48:58;3.13;;;2.03;;
62880;SDS011;48969;49.934;8.596;2023-03-23T06:51:24;2.78;;;2.13;;
62880;SDS011;48969;49.934;8.596;2023-03-23T06:53:49;3.42;;;2.13;;
62880;SDS011;48969;49.934;8.596;2023-03-23T06:56:15;2.78;;;1.95;;
62880;SDS011;48969;49.934;8.596;2023-03-23T06:58:40;2.47;;;1.83;;
62880;SDS011;48969;49.934;8.596;2023-03-23T07:01:07;2.35;;;1.80;;
62880;SDS011;48969;49.934;8.596;2023-03-23T07:03:33;3.15;;;1.95;;
62880;SDS011;48969;49.934;8.596;2023-03-23T07:05:58;3.60;;;2.03;;
62880;SDS011;48969;49.934;8.596;2023-03-23T07:08:24;2.65;;;2.17;;
62880;SDS011;48969;49.934;8.596;2023-03-23T07:10:55;2.72;;;1.90;;
62880;SDS011;48969;49.934;8.596;2023-03-23T07:13:21;3.15;;;2.13;;
62880;SDS011;48969;49.934;8.596;2023-03-23T07:15:47;2.33;;;1.92;;
62880;SDS011;48969;49.934;8.596;2023-03-23T07:18:13;3.17;;;1.80;;
62880;SDS011;48969;49.934;8.596;2023-03-23T07:20:38;2.40;;;2.00;;
62880;SDS011;48969;49.934;8.596;2023-03-23T07:23:04;3.53;;;2.20;;
62880;SDS011;48969;49.934;8.596;2023-03-23T07:25:32;2.33;;;1.80;;
62880;SDS011;48969;49.934;8.596;2023-03-23T07:27:58;2.67;;;2.08;;
62880;SDS011;48969;49.934;8.596;2023-03-23T07:30:24;3.33;;;2.03;;
62880;SDS011;48969;49.934;8.596;2023-03-23T07:32:51;4.32;;;2.33;;
62880;SDS011;48969;49.934;8.596;2023-03-23T07:35:16;3.05;;;2.25;;
62880;SDS011;48969;49.934;8.596;2023-03-23T07:37:41;3.63;;;2.13;;
62880;SDS011;48969;49.934;8.596;2023-03-23T07:40:10;4.00;;;2.08;;
62880;SDS011;48969;49.934;8.596;2023-03-23T07:42:42;2.97;;;2.25;;
62880;SDS011;48969;49.934;8.596;2023-03-23T07:45:07;3.50;;;2.10;;
62880;SDS011;48969;49.934;8.596;2023-03-23T07:47:33;3.03;;;2.20;;
62880;SDS011;48969;49.934;8.596;2023-03-23T07:49:58;3.92;;;2.50;;
62880;SDS011;48969;49.934;8.596;2023-03-23T07:52:23;4.30;;;2.13;;
62880;SDS011;48969;49.934;8.596;2023-03-23T07:54:48;4.65;;;2.28;;
62880;SDS011;48969;49.934;8.596;2023-03-23T07:57:14;2.90;;;2.20;;
62880;SDS011;48969;49.934;8.596;2023-03-23T07:59:39;3.37;;;2.27;;
62880;SDS011;48969;49.934;8.596;2023-03-23T08:02:05;3.00;;;2.00;;
62880;SDS011;48969;49.934;8.596;2023-03-23T08:04:32;3.00;;;2.00;;
62880;SDS011;48969;49.934;8.596;2023-03-23T08:07:01;2.13;;;1.83;;
62880;SDS011;48969;49.934;8.596;2023-03-23T08:09:27;3.25;;;2.30;;
62880;SDS011;48969;49.934;8.596;2023-03-23T08:11:52;2.92;;;2.20;;
62880;SDS011;48969;49.934;8.596;2023-03-23T08:14:17;3.47;;;2.60;;
62880;SDS011;48969;49.934;8.596;2023-03-23T08:16:43;3.22;;;2.08;;
62880;SDS011;48969;49.934;8.596;2023-03-23T08:19:08;4.20;;;2.40;;
62880;SDS011;48969;49.934;8.596;2023-03-23T08:21:33;4.15;;;2.28;;
62880;SDS011;48969;49.934;8.596;2023-03-23T08:24:00;2.90;;;1.98;;
62880;SDS011;48969;49.934;8.596;2023-03-23T08:26:26;2.38;;;2.15;;
62880;SDS011;48969;49.934;8.596;2023-03-23T08:28:51;6.17;;;2.40;;
62880;SDS011;48969;49.934;8.596;2023-03-23T08:31:16;3.72;;;2.20;;
62880;SDS011;48969;49.934;8.596;2023-03-23T08:33:42;3.90;;;2.30;;
62880;SDS011;48969;49.934;8.596;2023-03-23T08:36:07;4.03;;;2.10;;
62880;SDS011;48969;49.934;8.596;2023-03-23T08:38:33;3.63;;;2.50;;
62880;SDS011;48969;49.934;8.596;2023-03-23T08:41:01;3.72;;;2.10;;
62880;SDS011;48969;49.934;8.596;2023-03-23T08:43:29;2.22;;;1.92;;
62880;SDS011;48969;49.934;8.596;2023-03-23T08:45:54;4.20;;;2.15;;
62880;SDS011;48969;49.934;8.596;2023-03-23T08:48:19;3.33;;;2.10;;
62880;SDS011;48969;49.934;8.596;2023-03-23T08:50:44;3.35;;;2.13;;
62880;SDS011;48969;49.934;8.596;2023-03-23T08:53:10;2.70;;;2.03;;
62880;SDS011;48969;49.934;8.596;2023-03-23T08:55:36;2.92;;;2.35;;
62880;SDS011;48969;49.934;8.596;2023-03-23T08:58:01;3.15;;;2.28;;
62880;SDS011;48969;49.934;8.596;2023-03-23T09:00:28;2.95;;;2.00;;
62880;SDS011;48969;49.934;8.596;2023-03-23T09:02:54;2.38;;;1.95;;
62880;SDS011;48969;49.934;8.596;2023-03-23T09:05:20;3.03;;;2.40;;
62880;SDS011;48969;49.934;8.596;2023-03-23T09:07:47;2.42;;;2.20;;
62880;SDS011;48969;49.934;8.596;2023-03-23T09:10:12;3.53;;;2.13;;
62880;SDS011;48969;49.934;8.596;2023-03-23T09:12:38;3.17;;;1.83;;
62880;SDS011;48969;49.934;8.596;2023-03-23T09:15:05;3.22;;;2.00;;
62880;SDS011;48969;49.934;8.596;2023-03-23T09:17:34;3.92;;;2.13;;
62880;SDS011;48969;49.934;8.596;2023-03-23T09:20:00;3.10;;;2.08;;
62880;SDS011;48969;49.934;8.596;2023-03-23T09:22:25;2.28;;;2.03;;
62880;SDS011;48969;49.934;8.596;2023-03-23T09:24:50;2.08;;;1.88;;
62880;SDS011;48969;49.934;8.596;2023-03-23T09:27:16;2.63;;;1.90;;
62880;SDS011;48969;49.934;8.596;2023-03-23T09:29:42;2.67;;;2.00;;
62880;SDS011;48969;49.934;8.596;2023-03-23T09:32:09;2.20;;;2.00;;
62880;SDS011;48969;49.934;8.596;2023-03-23T09:34:34;3.85;;;2.15;;
62880;SDS011;48969;49.934;8.596;2023-03-23T09:37:01;3.80;;;2.08;;
62880;SDS011;48969;49.934;8.596;2023-03-23T09:39:29;3.08;;;2.00;;
62880;SDS011;48969;49.934;8.596;2023-03-23T09:41:58;2.45;;;1.80;;
62880;SDS011;48969;49.934;8.596;2023-03-23T09:49:59;3.58;;;2.05;;
62880;SDS011;48969;49.934;8.596;2023-03-23T09:52:28;2.72;;;2.10;;
62880;SDS011;48969;49.934;8.596;2023-03-23T09:54:56;3.17;;;2.35;;
62880;SDS011;48969;49.934;8.596;2023-03-23T09:59:50;3.28;;;2.15;;
62880;SDS011;48969;49.934;8.596;2023-03-23T10:02:18;3.03;;;2.10;;
62880;SDS011;48969;49.934;8.596;2023-03-23T10:04:45;2.63;;;1.90;;
62880;SDS011;48969;49.934;8.596;2023-03-23T10:07:13;2.60;;;2.10;;
62880;SDS011;48969;49.934;8.596;2023-03-23T10:09:39;2.90;;;1.88;;
62880;SDS011;48969;49.934;8.596;2023-03-23T10:14:58;2.95;;;2.00;;
62880;SDS011;48969;49.934;8.596;2023-03-23T10:22:37;2.80;;;1.77;;
62880;SDS011;48969;49.934;8.596;2023-03-23T10:27:38;2.65;;;1.80;;
62880;SDS011;48969;49.934;8.596;2023-03-23T10:32:50;2.55;;;1.88;;
62880;SDS011;48969;49.934;8.596;2023-03-23T10:35:27;2.17;;;1.80;;
62880;SDS011;48969;49.934;8.596;2023-03-23T10:38:02;3.42;;;1.92;;
62880;SDS011;48969;49.934;8.596;2023-03-23T10:40:30;3.08;;;2.22;;
62880;SDS011;48969;49.934;8.596;2023-03-23T10:42:55;2.75;;;1.75;;
62880;SDS011;48969;49.934;8.596;2023-03-23T10:45:25;2.63;;;1.77;;
62880;SDS011;48969;49.934;8.596;2023-03-23T10:50:36;2.33;;;1.50;;
62880;SDS011;48969;49.934;8.596;2023-03-23T10:53:03;3.05;;;1.80;;
62880;SDS011;48969;49.934;8.596;2023-03-23T10:55:39;2.08;;;1.60;;
62880;SDS011;48969;49.934;8.596;2023-03-23T11:00:30;1.92;;;1.50;;
62880;SDS011;48969;49.934;8.596;2023-03-23T11:03:04;3.05;;;1.70;;
62880;SDS011;48969;49.934;8.596;2023-03-23T11:08:20;3.38;;;1.70;;
62880;SDS011;48969;49.934;8.596;2023-03-23T11:13:15;2.17;;;1.63;;
62880;SDS011;48969;49.934;8.596;2023-03-23T11:15:41;2.70;;;1.77;;
62880;SDS011;48969;49.934;8.596;2023-03-23T11:18:11;2.03;;;1.60;;
62880;SDS011;48969;49.934;8.596;2023-03-23T11:20:48;2.58;;;1.70;;
62880;SDS011;48969;49.934;8.596;2023-03-23T11:23:24;1.55;;;1.45;;
62880;SDS011;48969;49.934;8.596;2023-03-23T11:25:57;2.17;;;1.80;;
62880;SDS011;48969;49.934;8.596;2023-03-23T11:28:28;3.40;;;1.63;;
62880;SDS011;48969;49.934;8.596;2023-03-23T11:30:55;1.90;;;1.70;;
62880;SDS011;48969;49.934;8.596;2023-03-23T11:33:20;1.70;;;1.60;;
62880;SDS011;48969;49.934;8.596;2023-03-23T11:35:46;3.63;;;1.90;;
62880;SDS011;48969;49.934;8.596;2023-03-23T11:38:20;1.60;;;1.40;;
62880;SDS011;48969;49.934;8.596;2023-03-23T11:40:48;3.15;;;1.80;;
62880;SDS011;48969;49.934;8.596;2023-03-23T11:43:17;3.08;;;1.60;;
62880;SDS011;48969;49.934;8.596;2023-03-23T11:48:38;2.50;;;1.67;;
62880;SDS011;48969;49.934;8.596;2023-03-23T11:56:06;1.95;;;1.42;;
62880;SDS011;48969;49.934;8.596;2023-03-23T11:58:32;2.83;;;1.73;;
62880;SDS011;48969;49.934;8.596;2023-03-23T12:04:25;1.77;;;1.40;;
62880;SDS011;48969;49.934;8.596;2023-03-23T12:08:56;1.30;;;1.20;;
62880;SDS011;48969;49.934;8.596;2023-03-23T12:27:34;2.67;;;1.38;;
62880;SDS011;48969;49.934;8.596;2023-03-23T12:30:21;1.58;;;1.48;;
62880;SDS011;48969;49.934;8.596;2023-03-23T12:37:56;1.92;;;1.30;;
62880;SDS011;48969;49.934;8.596;2023-03-23T12:46:18;1.33;;;1.23;;
62880;SDS011;48969;49.934;8.596;2023-03-23T12:48:33;1.52;;;1.10;;
62880;SDS011;48969;49.934;8.596;2023-03-23T12:56:11;1.38;;;1.17;;
62880;SDS011;48969;49.934;8.596;2023-03-23T12:58:48;1.33;;;1.10;;
62880;SDS011;48969;49.934;8.596;2023-03-23T13:01:18;1.52;;;1.10;;
62880;SDS011;48969;49.934;8.596;2023-03-23T13:06:19;1.20;;;1.10;;
62880;SDS011;48969;49.934;8.596;2023-03-23T13:09:05;1.80;;;1.40;;
62880;SDS011;48969;49.934;8.596;2023-03-23T13:19:27;1.70;;;1.60;;
62880;SDS011;48969;49.934;8.596;2023-03-23T13:24:25;1.63;;;1.15;;
62880;SDS011;48969;49.934;8.596;2023-03-23T13:26:52;1.50;;;1.40;;
62880;SDS011;48969;49.934;8.596;2023-03-23T13:29:21;1.80;;;1.40;;
62880;SDS011;48969;49.934;8.596;2023-03-23T13:31:49;1.77;;;1.35;;
62880;SDS011;48969;49.934;8.596;2023-03-23T13:34:22;1.75;;;1.20;;
62880;SDS011;48969;49.934;8.596;2023-03-23T13:36:57;2.72;;;1.20;;
62880;SDS011;48969;49.934;8.596;2023-03-23T13:39:33;2.55;;;1.45;;
62880;SDS011;48969;49.934;8.596;2023-03-23T13:42:04;1.42;;;1.20;;
62880;SDS011;48969;49.934;8.596;2023-03-23T13:49:58;0.90;;;0.90;;
62880;SDS011;48969;49.934;8.596;2023-03-23T14:00:50;1.38;;;1.20;;
62880;SDS011;48969;49.934;8.596;2023-03-23T14:13:00;1.27;;;1.00;;
62880;SDS011;48969;49.934;8.596;2023-03-23T14:15:28;1.55;;;1.00;;
62880;SDS011;48969;49.934;8.596;2023-03-23T14:17:53;2.03;;;1.35;;
62880;SDS011;48969;49.934;8.596;2023-03-23T14:20:26;1.25;;;1.00;;
62880;SDS011;48969;49.934;8.596;2023-03-23T14:22:54;2.13;;;1.17;;
62880;SDS011;48969;49.934;8.596;2023-03-23T14:25:20;2.60;;;1.33;;
62880;SDS011;48969;49.934;8.596;2023-03-23T14:27:47;1.23;;;1.10;;
62880;SDS011;48969;49.934;8.596;2023-03-23T14:30:13;1.20;;;1.10;;
62880;SDS011;48969;49.934;8.596;2023-03-23T14:32:39;1.60;;;1.05;;
62880;SDS011;48969;49.934;8.596;2023-03-23T14:35:09;2.13;;;1.35;;
62880;SDS011;48969;49.934;8.596;2023-03-23T14:37:37;1.63;;;1.10;;
62880;SDS011;48969;49.934;8.596;2023-03-23T14:40:04;1.60;;;1.05;;
62880;SDS011;48969;49.934;8.596;2023-03-23T14:42:33;1.67;;;1.15;;
62880;SDS011;48969;49.934;8.596;2023-03-23T14:45:00;0.88;;;0.88;;
62880;SDS011;48969;49.934;8.596;2023-03-23T14:47:27;1.23;;;1.13;;
62880;SDS011;48969;49.934;8.596;2023-03-23T14:50:00;1.38;;;1.13;;
62880;SDS011;48969;49.934;8.596;2023-03-23T14:52:27;1.02;;;0.98;;
62880;SDS011;48969;49.934;8.596;2023-03-23T14:55:06;2.05;;;1.10;;
62880;SDS011;48969;49.934;8.596;2023-03-23T14:57:32;1.52;;;1.17;;
62880;SDS011;48969;49.934;8.596;2023-03-23T14:59:57;1.40;;;1.10;;
62880;SDS011;48969;49.934;8.596;2023-03-23T15:02:24;2.22;;;1.10;;
62880;SDS011;48969;49.934;8.596;2023-03-23T15:04:52;1.58;;;0.90;;
62880;SDS011;48969;49.934;8.596;2023-03-23T15:07:18;1.42;;;1.20;;
62880;SDS011;48969;49.934;8.596;2023-03-23T15:09:45;1.42;;;1.17;;
62880;SDS011;48969;49.934;8.596;2023-03-23T15:12:18;2.78;;;1.20;;
62880;SDS011;48969;49.934;8.596;2023-03-23T15:14:45;1.10;;;1.00;;
62880;SDS011;48969;49.934;8.596;2023-03-23T15:17:19;1.50;;;1.00;;
62880;SDS011;48969;49.934;8.596;2023-03-23T15:19:45;2.30;;;1.20;;
62880;SDS011;48969;49.934;8.596;2023-03-23T15:22:24;1.27;;;1.08;;
62880;SDS011;48969;49.934;8.596;2023-03-23T15:24:51;2.08;;;1.33;;
62880;SDS011;48969;49.934;8.596;2023-03-23T15:27:24;3.47;;;1.30;;
62880;SDS011;48969;49.934;8.596;2023-03-23T15:29:51;3.63;;;1.65;;
62880;SDS011;48969;49.934;8.596;2023-03-23T15:32:23;2.13;;;1.33;;
62880;SDS011;48969;49.934;8.596;2023-03-23T15:34:49;1.30;;;1.20;;
62880;SDS011;48969;49.934;8.596;2023-03-23T15:37:18;2.25;;;1.10;;
62880;SDS011;48969;49.934;8.596;2023-03-23T15:39:45;1.45;;;1.30;;
62880;SDS011;48969;49.934;8.596;2023-03-23T15:42:21;2.78;;;2.00;;
62880;SDS011;48969;49.934;8.596;2023-03-23T15:44:54;1.92;;;1.30;;
62880;SDS011;48969;49.934;8.596;2023-03-23T15:47:20;2.88;;;1.73;;
62880;SDS011;48969;49.934;8.596;2023-03-23T15:49:46;2.38;;;1.73;;
62880;SDS011;48969;49.934;8.596;2023-03-23T15:52:13;2.58;;;1.20;;
62880;SDS011;48969;49.934;8.596;2023-03-23T15:54:38;2.33;;;1.50;;
62880;SDS011;48969;49.934;8.596;2023-03-23T15:57:03;2.22;;;1.50;;
62880;SDS011;48969;49.934;8.596;2023-03-23T15:59:30;3.30;;;1.30;;
62880;SDS011;48969;49.934;8.596;2023-03-23T16:01:55;2.22;;;1.23;;
62880;SDS011;48969;49.934;8.596;2023-03-23T16:04:21;2.08;;;1.65;;
62880;SDS011;48969;49.934;8.596;2023-03-23T16:06:46;1.67;;;1.40;;
62880;SDS011;48969;49.934;8.596;2023-03-23T16:09:15;1.38;;;1.20;;
62880;SDS011;48969;49.934;8.596;2023-03-23T16:11:41;2.05;;;1.40;;
62880;SDS011;48969;49.934;8.596;2023-03-23T16:14:06;1.37;;;1.27;;
62880;SDS011;48969;49.934;8.596;2023-03-23T16:16:52;1.35;;;1.25;;
62880;SDS011;48969;49.934;8.596;2023-03-23T16:19:17;2.13;;;1.30;;
62880;SDS011;48969;49.934;8.596;2023-03-23T16:21:44;2.03;;;1.30;;
62880;SDS011;48969;49.934;8.596;2023-03-23T16:24:10;1.98;;;1.38;;
62880;SDS011;48969;49.934;8.596;2023-03-23T16:26:35;2.22;;;1.17;;
62880;SDS011;48969;49.934;8.596;2023-03-23T16:29:00;3.60;;;1.70;;
62880;SDS011;48969;49.934;8.596;2023-03-23T16:31:27;3.28;;;1.58;;
62880;SDS011;48969;49.934;8.596;2023-03-23T16:33:52;1.50;;;1.40;;
62880;SDS011;48969;49.934;8.596;2023-03-23T16:36:17;1.90;;;1.27;;
62880;SDS011;48969;49.934;8.596;2023-03-23T16:38:42;1.90;;;1.48;;
62880;SDS011;48969;49.934;8.596;2023-03-23T16:41:08;2.88;;;1.40;;
62880;SDS011;48969;49.934;8.596;2023-03-23T16:43:33;3.50;;;1.80;;
62880;SDS011;48969;49.934;8.596;2023-03-23T16:45:58;2.40;;;1.35;;
62880;SDS011;48969;49.934;8.596;2023-03-23T16:48:24;2.63;;;1.60;;
62880;SDS011;48969;49.934;8.596;2023-03-23T16:50:50;2.22;;;1.45;;
62880;SDS011;48969;49.934;8.596;2023-03-23T16:53:16;2.00;;;1.60;;
62880;SDS011;48969;49.934;8.596;2023-03-23T16:55:41;1.90;;;1.57;;
62880;SDS011;48969;49.934;8.596;2023-03-23T16:58:11;3.25;;;1.55;;
62880;SDS011;48969;49.934;8.596;2023-03-23T17:00:37;3.60;;;1.50;;
62880;SDS011;48969;49.934;8.596;2023-03-23T17:03:04;1.98;;;1.45;;
62880;SDS011;48969;49.934;8.596;2023-03-23T17:05:30;2.22;;;1.60;;
62880;SDS011;48969;49.934;8.596;2023-03-23T17:07:55;1.98;;;1.48;;
62880;SDS011;48969;49.934;8.596;2023-03-23T17:10:21;2.75;;;1.80;;